createdAt,value
2019-03-29T00:01:30.188Z,45
2019-03-29T00:11:27.911Z,45
2019-03-29T00:21:27.703Z,45
2019-03-29T00:31:41.787Z,43
2019-03-29T00:41:32.062Z,45
2019-03-29T00:51:30.471Z,44
2019-03-29T01:01:33.792Z,45
2019-03-29T01:11:32.249Z,43
2019-03-29T01:21:27.961Z,43
2019-03-29T01:31:31.006Z,46
2019-03-29T01:41:28.873Z,46
2019-03-29T01:51:37.858Z,46
2019-03-29T02:01:45.773Z,44
2019-03-29T02:11:28.592Z,46
2019-03-29T02:21:28.910Z,45
2019-03-29T02:31:30.173Z,45
2019-03-29T02:41:29.720Z,44
2019-03-29T02:51:28.259Z,44
2019-03-29T03:01:27.867Z,46
2019-03-29T03:11:28.854Z,46
2019-03-29T03:21:27.720Z,46
2019-03-29T03:31:28.615Z,44
2019-03-29T03:41:30.080Z,45
2019-03-29T03:51:27.394Z,46
2019-03-29T04:01:28.117Z,45
2019-03-29T04:11:27.791Z,45
2019-03-29T04:21:27.049Z,45
2019-03-29T04:31:28.065Z,44
2019-03-29T04:41:27.126Z,45
2019-03-29T04:51:29.470Z,46
2019-03-29T05:01:29.878Z,46
2019-03-29T05:11:31.489Z,46
2019-03-29T05:21:31.998Z,46
2019-03-29T05:31:28.318Z,45
2019-03-29T05:41:27.883Z,46
2019-03-29T05:51:27.491Z,46
2019-03-29T06:01:28.359Z,46
2019-03-29T06:11:28.087Z,45
2019-03-29T06:21:27.918Z,46
2019-03-29T06:31:29.765Z,44
2019-03-29T06:41:28.882Z,45
2019-03-29T06:51:28.777Z,47
2019-03-29T07:01:28.565Z,45
2019-03-29T07:11:28.112Z,46
2019-03-29T07:21:27.820Z,47
2019-03-29T07:31:29.224Z,44
2019-03-29T07:41:34.299Z,44
2019-03-29T07:51:28.170Z,46
2019-03-29T08:01:27.843Z,46
2019-03-29T08:11:30.047Z,46
2019-03-29T08:21:28.103Z,45
2019-03-29T08:31:29.457Z,44
2019-03-29T08:41:29.112Z,44
2019-03-29T08:51:28.144Z,45
2019-03-29T09:01:28.162Z,45
2019-03-29T09:11:28.904Z,43
2019-03-29T09:21:27.757Z,43
2019-03-29T09:31:28.502Z,45
2019-03-29T09:41:28.586Z,43
2019-03-29T09:51:28.171Z,42
2019-03-29T10:01:29.377Z,42
2019-03-29T10:11:28.524Z,42
2019-03-29T10:21:28.710Z,44
2019-03-29T10:31:34.396Z,43
2019-03-29T10:41:28.352Z,44
2019-03-29T10:51:28.819Z,42
2019-03-29T11:01:28.598Z,42
2019-03-29T11:11:28.654Z,43
2019-03-29T11:21:29.708Z,41
2019-03-29T11:31:30.327Z,41
2019-03-29T11:41:29.174Z,41
2019-03-29T11:51:28.204Z,41
2019-03-29T12:01:28.116Z,42
2019-03-29T12:11:28.027Z,41
2019-03-29T12:21:29.360Z,40
2019-03-29T12:31:28.656Z,41
2019-03-29T12:41:28.319Z,41
2019-03-29T12:51:28.758Z,41
2019-03-29T13:01:41.744Z,41
2019-03-29T13:11:29.015Z,41
2019-03-29T13:21:28.307Z,42
2019-03-29T13:31:28.072Z,41
2019-03-29T13:41:27.933Z,42
2019-03-29T13:51:28.828Z,42
2019-03-29T14:01:29.005Z,40
2019-03-29T14:11:28.081Z,41
2019-03-29T14:21:27.196Z,41
2019-03-29T14:31:28.501Z,40
2019-03-29T14:41:29.053Z,40
2019-03-29T14:51:32.075Z,39
2019-03-29T15:01:30.705Z,39
2019-03-29T15:11:28.980Z,40
2019-03-29T15:21:28.884Z,40
2019-03-29T15:31:28.841Z,41
2019-03-29T15:41:28.942Z,41
2019-03-29T15:51:27.927Z,39
2019-03-29T16:01:28.511Z,40
2019-03-29T16:11:28.313Z,40
2019-03-29T16:21:29.967Z,39
2019-03-29T16:31:28.853Z,40
2019-03-29T16:41:28.739Z,39
2019-03-29T16:51:28.841Z,40
2019-03-29T17:01:28.583Z,41
2019-03-29T17:11:29.699Z,41
2019-03-29T17:21:28.221Z,40
2019-03-29T17:31:29.993Z,39
2019-03-29T17:41:28.247Z,41
2019-03-29T17:51:29.112Z,41
2019-03-29T18:01:28.404Z,41
2019-03-29T18:11:28.076Z,41
2019-03-29T18:21:29.199Z,41
2019-03-29T18:31:27.900Z,40
2019-03-29T18:41:27.985Z,41
2019-03-29T18:51:27.874Z,41
2019-03-29T19:01:29.397Z,41
2019-03-29T19:11:28.105Z,42
2019-03-29T19:21:28.342Z,42
2019-03-29T19:31:29.250Z,42
2019-03-29T19:41:29.245Z,41
2019-03-29T19:51:29.047Z,41
2019-03-29T20:01:29.230Z,41
2019-03-29T20:11:28.170Z,42
2019-03-29T20:21:28.287Z,42
2019-03-29T20:31:27.923Z,42
2019-03-29T20:41:30.158Z,41
2019-03-29T20:51:27.841Z,41
2019-03-29T21:01:28.484Z,43
2019-03-29T21:11:28.179Z,42
2019-03-29T21:21:28.354Z,42
2019-03-29T21:31:28.659Z,42
2019-03-29T21:41:28.688Z,42
2019-03-29T21:51:30.521Z,41
2019-03-29T22:01:29.413Z,42
2019-03-29T22:11:28.086Z,42
2019-03-29T22:21:30.689Z,41
2019-03-29T22:31:28.776Z,44
2019-03-29T22:41:31.468Z,42
2019-03-29T22:51:28.566Z,43
2019-03-29T23:01:28.512Z,43
2019-03-29T23:11:29.494Z,42
2019-03-29T23:21:28.380Z,43
2019-03-29T23:31:29.713Z,42
2019-03-29T23:41:28.359Z,43
2019-03-29T23:51:27.933Z,43
